sensor_id;sensor_type;location;lat;lon;timestamp;P1;durP1;ratioP1;P2;durP2;ratioP2
41986;SDS011;28361;50.740;7.084;2022-07-22T00:02:06;11.07;;;6.05;;
41986;SDS011;28361;50.740;7.084;2022-07-22T00:04:32;8.55;;;5.80;;
41986;SDS011;28361;50.740;7.084;2022-07-22T00:06:58;8.90;;;5.45;;
41986;SDS011;28361;50.740;7.084;2022-07-22T00:09:23;10.77;;;5.40;;
41986;SDS011;28361;50.740;7.084;2022-07-22T00:11:49;9.60;;;5.22;;
41986;SDS011;28361;50.740;7.084;2022-07-22T00:14:16;10.20;;;5.03;;
41986;SDS011;28361;50.740;7.084;2022-07-22T00:16:41;10.45;;;6.18;;
41986;SDS011;28361;50.740;7.084;2022-07-22T00:19:07;9.45;;;5.30;;
41986;SDS011;28361;50.740;7.084;2022-07-22T00:21:33;8.95;;;5.20;;
41986;SDS011;28361;50.740;7.084;2022-07-22T00:23:59;12.13;;;5.32;;
41986;SDS011;28361;50.740;7.084;2022-07-22T00:26:25;8.88;;;5.53;;
41986;SDS011;28361;50.740;7.084;2022-07-22T00:28:50;11.02;;;5.57;;
41986;SDS011;28361;50.740;7.084;2022-07-22T00:31:16;8.32;;;4.88;;
41986;SDS011;28361;50.740;7.084;2022-07-22T00:33:44;7.93;;;5.18;;
41986;SDS011;28361;50.740;7.084;2022-07-22T00:36:09;9.25;;;5.05;;
41986;SDS011;28361;50.740;7.084;2022-07-22T00:38:35;11.50;;;5.88;;
41986;SDS011;28361;50.740;7.084;2022-07-22T00:41:02;9.25;;;5.45;;
41986;SDS011;28361;50.740;7.084;2022-07-22T00:43:27;9.40;;;5.18;;
41986;SDS011;28361;50.740;7.084;2022-07-22T00:46:13;10.55;;;5.65;;
41986;SDS011;28361;50.740;7.084;2022-07-22T00:48:38;8.95;;;5.55;;
41986;SDS011;28361;50.740;7.084;2022-07-22T00:51:04;9.38;;;4.97;;
41986;SDS011;28361;50.740;7.084;2022-07-22T00:53:30;9.95;;;4.40;;
41986;SDS011;28361;50.740;7.084;2022-07-22T00:55:56;11.25;;;4.57;;
41986;SDS011;28361;50.740;7.084;2022-07-22T00:58:22;10.82;;;4.93;;
41986;SDS011;28361;50.740;7.084;2022-07-22T01:00:48;9.40;;;4.90;;
41986;SDS011;28361;50.740;7.084;2022-07-22T01:03:14;8.13;;;4.32;;
41986;SDS011;28361;50.740;7.084;2022-07-22T01:05:41;8.25;;;4.63;;
41986;SDS011;28361;50.740;7.084;2022-07-22T01:08:07;8.60;;;3.88;;
41986;SDS011;28361;50.740;7.084;2022-07-22T01:10:33;7.88;;;4.40;;
41986;SDS011;28361;50.740;7.084;2022-07-22T01:12:59;10.93;;;4.75;;
41986;SDS011;28361;50.740;7.084;2022-07-22T01:15:25;7.75;;;4.47;;
41986;SDS011;28361;50.740;7.084;2022-07-22T01:17:51;10.60;;;4.32;;
41986;SDS011;28361;50.740;7.084;2022-07-22T01:20:16;8.90;;;4.72;;
41986;SDS011;28361;50.740;7.084;2022-07-22T01:22:42;6.07;;;4.68;;
41986;SDS011;28361;50.740;7.084;2022-07-22T01:25:10;12.68;;;4.70;;
41986;SDS011;28361;50.740;7.084;2022-07-22T01:27:36;7.28;;;4.13;;
41986;SDS011;28361;50.740;7.084;2022-07-22T01:30:03;11.65;;;4.43;;
41986;SDS011;28361;50.740;7.084;2022-07-22T01:32:30;10.43;;;4.85;;
41986;SDS011;28361;50.740;7.084;2022-07-22T01:34:55;9.80;;;6.00;;
41986;SDS011;28361;50.740;7.084;2022-07-22T01:37:21;8.75;;;4.65;;
41986;SDS011;28361;50.740;7.084;2022-07-22T01:39:47;7.95;;;4.80;;
41986;SDS011;28361;50.740;7.084;2022-07-22T01:42:13;12.38;;;5.45;;
41986;SDS011;28361;50.740;7.084;2022-07-22T01:44:39;10.20;;;5.00;;
41986;SDS011;28361;50.740;7.084;2022-07-22T01:47:05;13.38;;;5.88;;
41986;SDS011;28361;50.740;7.084;2022-07-22T01:49:31;9.15;;;4.85;;
41986;SDS011;28361;50.740;7.084;2022-07-22T01:51:57;11.07;;;5.28;;
41986;SDS011;28361;50.740;7.084;2022-07-22T01:54:22;9.27;;;4.90;;
41986;SDS011;28361;50.740;7.084;2022-07-22T01:56:48;10.82;;;5.22;;
41986;SDS011;28361;50.740;7.084;2022-07-22T01:59:14;10.98;;;5.13;;
41986;SDS011;28361;50.740;7.084;2022-07-22T02:01:39;10.25;;;5.15;;
41986;SDS011;28361;50.740;7.084;2022-07-22T02:04:05;8.82;;;5.18;;
41986;SDS011;28361;50.740;7.084;2022-07-22T02:06:31;7.50;;;4.53;;
41986;SDS011;28361;50.740;7.084;2022-07-22T02:08:57;8.40;;;4.75;;
41986;SDS011;28361;50.740;7.084;2022-07-22T02:11:22;12.30;;;4.68;;
41986;SDS011;28361;50.740;7.084;2022-07-22T02:13:48;13.23;;;5.13;;
41986;SDS011;28361;50.740;7.084;2022-07-22T02:16:14;8.18;;;4.82;;
41986;SDS011;28361;50.740;7.084;2022-07-22T02:18:39;6.60;;;4.50;;
41986;SDS011;28361;50.740;7.084;2022-07-22T02:21:05;8.77;;;4.70;;
41986;SDS011;28361;50.740;7.084;2022-07-22T02:23:31;9.80;;;5.22;;
41986;SDS011;28361;50.740;7.084;2022-07-22T02:25:56;12.75;;;5.90;;
41986;SDS011;28361;50.740;7.084;2022-07-22T02:28:22;10.75;;;5.75;;
41986;SDS011;28361;50.740;7.084;2022-07-22T02:30:48;9.40;;;5.07;;
41986;SDS011;28361;50.740;7.084;2022-07-22T02:33:14;12.15;;;5.07;;
41986;SDS011;28361;50.740;7.084;2022-07-22T02:35:40;8.68;;;5.35;;
41986;SDS011;28361;50.740;7.084;2022-07-22T02:38:06;11.32;;;6.05;;
41986;SDS011;28361;50.740;7.084;2022-07-22T02:40:32;10.50;;;5.60;;
41986;SDS011;28361;50.740;7.084;2022-07-22T02:42:58;9.05;;;5.05;;
41986;SDS011;28361;50.740;7.084;2022-07-22T02:45:24;10.90;;;5.90;;
41986;SDS011;28361;50.740;7.084;2022-07-22T02:47:51;8.10;;;5.38;;
41986;SDS011;28361;50.740;7.084;2022-07-22T02:50:18;12.98;;;5.95;;
41986;SDS011;28361;50.740;7.084;2022-07-22T02:52:44;11.73;;;5.55;;
41986;SDS011;28361;50.740;7.084;2022-07-22T02:55:09;18.95;;;7.72;;
41986;SDS011;28361;50.740;7.084;2022-07-22T02:57:35;11.32;;;5.80;;
41986;SDS011;28361;50.740;7.084;2022-07-22T03:00:02;14.40;;;6.15;;
41986;SDS011;28361;50.740;7.084;2022-07-22T03:02:28;14.20;;;6.28;;
41986;SDS011;28361;50.740;7.084;2022-07-22T03:04:55;10.60;;;5.72;;
41986;SDS011;28361;50.740;7.084;2022-07-22T03:07:20;10.57;;;6.25;;
41986;SDS011;28361;50.740;7.084;2022-07-22T03:09:46;12.07;;;6.90;;
41986;SDS011;28361;50.740;7.084;2022-07-22T03:12:12;10.48;;;6.38;;
41986;SDS011;28361;50.740;7.084;2022-07-22T03:14:38;13.35;;;7.03;;
41986;SDS011;28361;50.740;7.084;2022-07-22T03:17:03;11.77;;;6.60;;
41986;SDS011;28361;50.740;7.084;2022-07-22T03:19:29;12.32;;;6.97;;
41986;SDS011;28361;50.740;7.084;2022-07-22T03:21:55;10.60;;;6.68;;
41986;SDS011;28361;50.740;7.084;2022-07-22T03:24:20;11.55;;;7.45;;
41986;SDS011;28361;50.740;7.084;2022-07-22T03:26:46;11.68;;;6.45;;
41986;SDS011;28361;50.740;7.084;2022-07-22T03:29:12;11.68;;;6.65;;
41986;SDS011;28361;50.740;7.084;2022-07-22T03:31:38;9.52;;;5.47;;
41986;SDS011;28361;50.740;7.084;2022-07-22T03:34:03;8.30;;;5.07;;
41986;SDS011;28361;50.740;7.084;2022-07-22T03:36:29;15.48;;;6.25;;
41986;SDS011;28361;50.740;7.084;2022-07-22T03:38:55;11.40;;;5.78;;
41986;SDS011;28361;50.740;7.084;2022-07-22T03:41:21;11.65;;;5.30;;
41986;SDS011;28361;50.740;7.084;2022-07-22T03:43:47;10.18;;;5.38;;
41986;SDS011;28361;50.740;7.084;2022-07-22T03:46:13;7.93;;;5.43;;
41986;SDS011;28361;50.740;7.084;2022-07-22T03:48:39;11.07;;;5.55;;
41986;SDS011;28361;50.740;7.084;2022-07-22T03:51:05;6.43;;;4.60;;
41986;SDS011;28361;50.740;7.084;2022-07-22T03:53:31;7.82;;;4.40;;
41986;SDS011;28361;50.740;7.084;2022-07-22T03:56:00;6.53;;;4.95;;
41986;SDS011;28361;50.740;7.084;2022-07-22T03:58:26;8.90;;;4.95;;
41986;SDS011;28361;50.740;7.084;2022-07-22T04:00:53;10.43;;;4.80;;
41986;SDS011;28361;50.740;7.084;2022-07-22T04:03:19;8.43;;;4.40;;
41986;SDS011;28361;50.740;7.084;2022-07-22T04:05:45;8.85;;;4.63;;
41986;SDS011;28361;50.740;7.084;2022-07-22T04:08:11;9.15;;;4.40;;
41986;SDS011;28361;50.740;7.084;2022-07-22T04:10:37;7.47;;;4.53;;
41986;SDS011;28361;50.740;7.084;2022-07-22T04:13:04;14.60;;;4.70;;
41986;SDS011;28361;50.740;7.084;2022-07-22T04:15:29;10.88;;;5.63;;
41986;SDS011;28361;50.740;7.084;2022-07-22T04:17:55;11.10;;;5.80;;
41986;SDS011;28361;50.740;7.084;2022-07-22T04:20:21;9.73;;;5.38;;
41986;SDS011;28361;50.740;7.084;2022-07-22T04:22:47;9.40;;;5.20;;
41986;SDS011;28361;50.740;7.084;2022-07-22T04:25:13;9.52;;;5.32;;
41986;SDS011;28361;50.740;7.084;2022-07-22T04:27:39;8.73;;;5.30;;
41986;SDS011;28361;50.740;7.084;2022-07-22T04:30:06;9.57;;;5.07;;
41986;SDS011;28361;50.740;7.084;2022-07-22T04:32:32;14.18;;;5.60;;
41986;SDS011;28361;50.740;7.084;2022-07-22T04:34:58;8.05;;;4.70;;
41986;SDS011;28361;50.740;7.084;2022-07-22T04:37:23;11.07;;;5.57;;
41986;SDS011;28361;50.740;7.084;2022-07-22T04:39:49;8.25;;;4.93;;
41986;SDS011;28361;50.740;7.084;2022-07-22T04:42:15;10.55;;;5.32;;
41986;SDS011;28361;50.740;7.084;2022-07-22T04:44:41;10.20;;;5.18;;
41986;SDS011;28361;50.740;7.084;2022-07-22T04:47:09;10.20;;;5.47;;
41986;SDS011;28361;50.740;7.084;2022-07-22T04:49:35;11.45;;;4.95;;
41986;SDS011;28361;50.740;7.084;2022-07-22T04:52:01;7.65;;;4.95;;
41986;SDS011;28361;50.740;7.084;2022-07-22T04:54:27;8.45;;;5.00;;
41986;SDS011;28361;50.740;7.084;2022-07-22T04:56:53;14.20;;;5.85;;
41986;SDS011;28361;50.740;7.084;2022-07-22T04:59:19;9.50;;;5.05;;
41986;SDS011;28361;50.740;7.084;2022-07-22T05:01:44;6.00;;;4.82;;
41986;SDS011;28361;50.740;7.084;2022-07-22T05:04:10;9.80;;;5.05;;
41986;SDS011;28361;50.740;7.084;2022-07-22T05:06:36;14.00;;;5.78;;
41986;SDS011;28361;50.740;7.084;2022-07-22T05:09:02;10.05;;;5.47;;
41986;SDS011;28361;50.740;7.084;2022-07-22T05:11:28;11.55;;;5.60;;
41986;SDS011;28361;50.740;7.084;2022-07-22T05:13:54;10.95;;;4.95;;
41986;SDS011;28361;50.740;7.084;2022-07-22T05:16:19;5.53;;;4.75;;
41986;SDS011;28361;50.740;7.084;2022-07-22T05:18:45;8.43;;;4.68;;
41986;SDS011;28361;50.740;7.084;2022-07-22T05:21:11;10.75;;;4.78;;
41986;SDS011;28361;50.740;7.084;2022-07-22T05:23:37;9.90;;;4.57;;
41986;SDS011;28361;50.740;7.084;2022-07-22T05:26:03;8.43;;;4.60;;
41986;SDS011;28361;50.740;7.084;2022-07-22T05:28:30;8.82;;;4.68;;
41986;SDS011;28361;50.740;7.084;2022-07-22T05:30:56;11.07;;;4.57;;
41986;SDS011;28361;50.740;7.084;2022-07-22T05:33:21;10.32;;;4.68;;
41986;SDS011;28361;50.740;7.084;2022-07-22T05:35:47;7.28;;;4.32;;
41986;SDS011;28361;50.740;7.084;2022-07-22T05:38:13;9.90;;;4.70;;
41986;SDS011;28361;50.740;7.084;2022-07-22T05:40:39;7.47;;;4.50;;
41986;SDS011;28361;50.740;7.084;2022-07-22T05:43:05;8.18;;;4.40;;
41986;SDS011;28361;50.740;7.084;2022-07-22T05:45:30;6.05;;;4.20;;
41986;SDS011;28361;50.740;7.084;2022-07-22T05:47:56;9.23;;;4.10;;
41986;SDS011;28361;50.740;7.084;2022-07-22T05:50:22;6.93;;;3.97;;
41986;SDS011;28361;50.740;7.084;2022-07-22T05:52:48;6.97;;;3.85;;
41986;SDS011;28361;50.740;7.084;2022-07-22T05:55:13;7.78;;;4.22;;
41986;SDS011;28361;50.740;7.084;2022-07-22T05:57:39;8.60;;;4.22;;
41986;SDS011;28361;50.740;7.084;2022-07-22T06:00:05;7.82;;;4.45;;
41986;SDS011;28361;50.740;7.084;2022-07-22T06:02:31;8.32;;;4.18;;
41986;SDS011;28361;50.740;7.084;2022-07-22T06:04:57;6.97;;;3.85;;
41986;SDS011;28361;50.740;7.084;2022-07-22T06:07:25;6.90;;;4.47;;
41986;SDS011;28361;50.740;7.084;2022-07-22T06:09:52;6.95;;;4.35;;
41986;SDS011;28361;50.740;7.084;2022-07-22T06:12:18;11.85;;;5.35;;
41986;SDS011;28361;50.740;7.084;2022-07-22T06:14:44;17.10;;;4.88;;
41986;SDS011;28361;50.740;7.084;2022-07-22T06:17:11;7.30;;;4.45;;
41986;SDS011;28361;50.740;7.084;2022-07-22T06:19:37;8.25;;;4.38;;
41986;SDS011;28361;50.740;7.084;2022-07-22T06:22:03;10.88;;;4.32;;
41986;SDS011;28361;50.740;7.084;2022-07-22T06:24:29;7.93;;;3.92;;
41986;SDS011;28361;50.740;7.084;2022-07-22T06:26:58;5.60;;;3.50;;
41986;SDS011;28361;50.740;7.084;2022-07-22T06:29:23;9.98;;;4.22;;
41986;SDS011;28361;50.740;7.084;2022-07-22T06:31:49;6.13;;;3.88;;
41986;SDS011;28361;50.740;7.084;2022-07-22T06:34:15;10.57;;;4.30;;
41986;SDS011;28361;50.740;7.084;2022-07-22T06:36:40;5.95;;;4.50;;
41986;SDS011;28361;50.740;7.084;2022-07-22T06:39:06;7.18;;;4.00;;
41986;SDS011;28361;50.740;7.084;2022-07-22T06:41:32;8.48;;;4.55;;
41986;SDS011;28361;50.740;7.084;2022-07-22T06:43:58;6.13;;;4.13;;
41986;SDS011;28361;50.740;7.084;2022-07-22T06:46:23;6.15;;;4.05;;
41986;SDS011;28361;50.740;7.084;2022-07-22T06:48:49;5.53;;;3.70;;
41986;SDS011;28361;50.740;7.084;2022-07-22T06:51:15;6.55;;;3.70;;
41986;SDS011;28361;50.740;7.084;2022-07-22T06:53:40;6.35;;;3.25;;
41986;SDS011;28361;50.740;7.084;2022-07-22T06:56:06;6.97;;;3.15;;
41986;SDS011;28361;50.740;7.084;2022-07-22T06:58:32;5.47;;;3.53;;
41986;SDS011;28361;50.740;7.084;2022-07-22T07:00:58;7.38;;;3.80;;
41986;SDS011;28361;50.740;7.084;2022-07-22T07:03:24;6.10;;;3.55;;
41986;SDS011;28361;50.740;7.084;2022-07-22T07:05:50;6.85;;;3.70;;
41986;SDS011;28361;50.740;7.084;2022-07-22T07:08:16;6.68;;;4.40;;
41986;SDS011;28361;50.740;7.084;2022-07-22T07:10:42;7.63;;;4.68;;
41986;SDS011;28361;50.740;7.084;2022-07-22T07:13:08;6.25;;;4.30;;
41986;SDS011;28361;50.740;7.084;2022-07-22T07:15:34;10.70;;;5.28;;
41986;SDS011;28361;50.740;7.084;2022-07-22T07:18:00;5.95;;;4.43;;
41986;SDS011;28361;50.740;7.084;2022-07-22T07:20:26;8.52;;;4.43;;
41986;SDS011;28361;50.740;7.084;2022-07-22T07:22:51;8.07;;;4.43;;
41986;SDS011;28361;50.740;7.084;2022-07-22T07:25:18;6.00;;;3.97;;
41986;SDS011;28361;50.740;7.084;2022-07-22T07:27:44;8.63;;;5.05;;
41986;SDS011;28361;50.740;7.084;2022-07-22T07:30:10;9.43;;;5.35;;
41986;SDS011;28361;50.740;7.084;2022-07-22T07:32:36;8.27;;;4.82;;
41986;SDS011;28361;50.740;7.084;2022-07-22T07:35:03;7.32;;;4.60;;
41986;SDS011;28361;50.740;7.084;2022-07-22T07:37:30;9.20;;;5.15;;
41986;SDS011;28361;50.740;7.084;2022-07-22T07:39:56;7.15;;;4.78;;
41986;SDS011;28361;50.740;7.084;2022-07-22T07:42:22;7.97;;;4.78;;
41986;SDS011;28361;50.740;7.084;2022-07-22T07:44:48;6.65;;;4.97;;
41986;SDS011;28361;50.740;7.084;2022-07-22T07:47:14;10.07;;;5.68;;
41986;SDS011;28361;50.740;7.084;2022-07-22T07:49:45;7.30;;;4.85;;
41986;SDS011;28361;50.740;7.084;2022-07-22T07:52:11;8.02;;;5.47;;
41986;SDS011;28361;50.740;7.084;2022-07-22T07:54:38;9.82;;;5.90;;
41986;SDS011;28361;50.740;7.084;2022-07-22T07:57:08;8.30;;;5.85;;
41986;SDS011;28361;50.740;7.084;2022-07-22T07:59:36;9.98;;;6.13;;
41986;SDS011;28361;50.740;7.084;2022-07-22T08:02:02;11.25;;;6.80;;
41986;SDS011;28361;50.740;7.084;2022-07-22T08:04:28;10.55;;;6.68;;
41986;SDS011;28361;50.740;7.084;2022-07-22T08:06:55;11.25;;;7.38;;
41986;SDS011;28361;50.740;7.084;2022-07-22T08:09:21;12.55;;;7.25;;
41986;SDS011;28361;50.740;7.084;2022-07-22T08:11:47;11.77;;;6.97;;
41986;SDS011;28361;50.740;7.084;2022-07-22T08:14:13;8.55;;;6.15;;
41986;SDS011;28361;50.740;7.084;2022-07-22T08:16:38;11.55;;;6.72;;
41986;SDS011;28361;50.740;7.084;2022-07-22T08:19:04;14.18;;;7.13;;
41986;SDS011;28361;50.740;7.084;2022-07-22T08:21:30;15.13;;;6.65;;
41986;SDS011;28361;50.740;7.084;2022-07-22T08:23:56;11.82;;;7.45;;
41986;SDS011;28361;50.740;7.084;2022-07-22T08:26:21;13.38;;;6.65;;
41986;SDS011;28361;50.740;7.084;2022-07-22T08:28:47;10.40;;;6.95;;
41986;SDS011;28361;50.740;7.084;2022-07-22T08:31:13;10.88;;;7.53;;
41986;SDS011;28361;50.740;7.084;2022-07-22T08:33:39;13.48;;;7.85;;
41986;SDS011;28361;50.740;7.084;2022-07-22T08:36:05;11.77;;;7.72;;
41986;SDS011;28361;50.740;7.084;2022-07-22T08:38:31;11.27;;;6.85;;
41986;SDS011;28361;50.740;7.084;2022-07-22T08:40:57;10.20;;;7.20;;
41986;SDS011;28361;50.740;7.084;2022-07-22T08:43:24;13.10;;;7.78;;
41986;SDS011;28361;50.740;7.084;2022-07-22T08:45:50;14.75;;;8.18;;
41986;SDS011;28361;50.740;7.084;2022-07-22T08:48:16;13.63;;;8.25;;
41986;SDS011;28361;50.740;7.084;2022-07-22T08:50:42;14.50;;;8.35;;
41986;SDS011;28361;50.740;7.084;2022-07-22T08:53:08;14.02;;;8.40;;
41986;SDS011;28361;50.740;7.084;2022-07-22T08:55:45;11.70;;;7.60;;
41986;SDS011;28361;50.740;7.084;2022-07-22T08:58:13;10.02;;;7.28;;
41986;SDS011;28361;50.740;7.084;2022-07-22T09:00:39;10.18;;;7.30;;
41986;SDS011;28361;50.740;7.084;2022-07-22T09:03:18;10.52;;;7.70;;
41986;SDS011;28361;50.740;7.084;2022-07-22T09:05:52;13.57;;;7.47;;
41986;SDS011;28361;50.740;7.084;2022-07-22T09:08:20;12.48;;;7.88;;
41986;SDS011;28361;50.740;7.084;2022-07-22T09:10:46;11.52;;;7.85;;
41986;SDS011;28361;50.740;7.084;2022-07-22T09:13:14;10.48;;;7.20;;
41986;SDS011;28361;50.740;7.084;2022-07-22T09:15:48;8.93;;;6.72;;
41986;SDS011;28361;50.740;7.084;2022-07-22T09:18:16;8.38;;;6.10;;
41986;SDS011;28361;50.740;7.084;2022-07-22T09:20:42;9.57;;;6.70;;
41986;SDS011;28361;50.740;7.084;2022-07-22T09:23:11;8.13;;;5.55;;
41986;SDS011;28361;50.740;7.084;2022-07-22T09:25:39;9.25;;;6.30;;
41986;SDS011;28361;50.740;7.084;2022-07-22T09:30:33;10.23;;;6.18;;
41986;SDS011;28361;50.740;7.084;2022-07-22T09:33:00;8.70;;;5.43;;
41986;SDS011;28361;50.740;7.084;2022-07-22T09:35:27;8.35;;;6.85;;
41986;SDS011;28361;50.740;7.084;2022-07-22T09:38:00;8.07;;;6.55;;
41986;SDS011;28361;50.740;7.084;2022-07-22T09:40:29;10.32;;;6.63;;
41986;SDS011;28361;50.740;7.084;2022-07-22T09:43:03;9.40;;;6.55;;
41986;SDS011;28361;50.740;7.084;2022-07-22T09:45:32;9.55;;;6.47;;
41986;SDS011;28361;50.740;7.084;2022-07-22T09:47:59;10.15;;;6.95;;
41986;SDS011;28361;50.740;7.084;2022-07-22T09:50:27;9.27;;;6.55;;
41986;SDS011;28361;50.740;7.084;2022-07-22T09:52:58;10.27;;;7.07;;
41986;SDS011;28361;50.740;7.084;2022-07-22T09:55:25;12.82;;;7.45;;
41986;SDS011;28361;50.740;7.084;2022-07-22T09:57:53;11.02;;;7.50;;
41986;SDS011;28361;50.740;7.084;2022-07-22T10:00:21;9.90;;;7.35;;
41986;SDS011;28361;50.740;7.084;2022-07-22T10:02:59;9.90;;;6.82;;
41986;SDS011;28361;50.740;7.084;2022-07-22T10:05:32;11.93;;;7.50;;
41986;SDS011;28361;50.740;7.084;2022-07-22T10:08:00;10.43;;;7.35;;
41986;SDS011;28361;50.740;7.084;2022-07-22T10:10:28;10.50;;;7.28;;
41986;SDS011;28361;50.740;7.084;2022-07-22T10:12:56;9.75;;;7.70;;
41986;SDS011;28361;50.740;7.084;2022-07-22T10:15:24;10.32;;;7.82;;
41986;SDS011;28361;50.740;7.084;2022-07-22T10:17:52;13.00;;;8.68;;
41986;SDS011;28361;50.740;7.084;2022-07-22T10:20:21;11.02;;;7.95;;
41986;SDS011;28361;50.740;7.084;2022-07-22T10:22:50;11.38;;;8.57;;
41986;SDS011;28361;50.740;7.084;2022-07-22T10:25:18;10.90;;;8.25;;
41986;SDS011;28361;50.740;7.084;2022-07-22T10:27:52;10.82;;;8.02;;
41986;SDS011;28361;50.740;7.084;2022-07-22T10:30:20;10.35;;;8.07;;
41986;SDS011;28361;50.740;7.084;2022-07-22T10:36:01;12.23;;;8.38;;
41986;SDS011;28361;50.740;7.084;2022-07-22T10:38:29;11.82;;;8.57;;
41986;SDS011;28361;50.740;7.084;2022-07-22T10:40:59;12.38;;;9.02;;
41986;SDS011;28361;50.740;7.084;2022-07-22T10:43:27;12.10;;;8.52;;
41986;SDS011;28361;50.740;7.084;2022-07-22T10:45:55;12.48;;;8.70;;
41986;SDS011;28361;50.740;7.084;2022-07-22T10:56:33;13.55;;;9.60;;
41986;SDS011;28361;50.740;7.084;2022-07-22T10:59:13;13.63;;;10.38;;
41986;SDS011;28361;50.740;7.084;2022-07-22T11:01:43;17.05;;;10.50;;
41986;SDS011;28361;50.740;7.084;2022-07-22T11:04:21;15.18;;;10.23;;
41986;SDS011;28361;50.740;7.084;2022-07-22T11:06:49;13.02;;;9.88;;
41986;SDS011;28361;50.740;7.084;2022-07-22T11:09:17;12.68;;;9.80;;
41986;SDS011;28361;50.740;7.084;2022-07-22T11:16:44;11.52;;;9.25;;
41986;SDS011;28361;50.740;7.084;2022-07-22T11:19:11;11.93;;;9.52;;
41986;SDS011;28361;50.740;7.084;2022-07-22T11:21:36;11.27;;;9.77;;
41986;SDS011;28361;50.740;7.084;2022-07-22T11:24:05;11.80;;;9.88;;
41986;SDS011;28361;50.740;7.084;2022-07-22T11:26:39;11.93;;;9.73;;
41986;SDS011;28361;50.740;7.084;2022-07-22T11:31:54;10.82;;;8.85;;
41986;SDS011;28361;50.740;7.084;2022-07-22T11:34:21;10.40;;;9.30;;
41986;SDS011;28361;50.740;7.084;2022-07-22T11:36:48;11.25;;;9.45;;
41986;SDS011;28361;50.740;7.084;2022-07-22T11:39:17;15.32;;;9.82;;
41986;SDS011;28361;50.740;7.084;2022-07-22T11:41:44;12.13;;;9.90;;
41986;SDS011;28361;50.740;7.084;2022-07-22T11:44:10;12.30;;;9.40;;
41986;SDS011;28361;50.740;7.084;2022-07-22T11:46:37;9.68;;;8.27;;
41986;SDS011;28361;50.740;7.084;2022-07-22T11:49:05;10.10;;;8.48;;
41986;SDS011;28361;50.740;7.084;2022-07-22T11:51:32;11.98;;;10.23;;
41986;SDS011;28361;50.740;7.084;2022-07-22T11:53:59;9.95;;;8.82;;
41986;SDS011;28361;50.740;7.084;2022-07-22T11:56:25;10.20;;;8.48;;
41986;SDS011;28361;50.740;7.084;2022-07-22T11:58:51;10.48;;;8.68;;
41986;SDS011;28361;50.740;7.084;2022-07-22T12:01:25;11.90;;;9.40;;
41986;SDS011;28361;50.740;7.084;2022-07-22T12:03:59;11.57;;;8.70;;
41986;SDS011;28361;50.740;7.084;2022-07-22T12:06:30;10.40;;;8.25;;
41986;SDS011;28361;50.740;7.084;2022-07-22T12:09:12;12.35;;;9.20;;
41986;SDS011;28361;50.740;7.084;2022-07-22T12:11:58;10.50;;;9.07;;
41986;SDS011;28361;50.740;7.084;2022-07-22T12:14:28;11.52;;;9.07;;
41986;SDS011;28361;50.740;7.084;2022-07-22T12:16:57;11.75;;;8.60;;
41986;SDS011;28361;50.740;7.084;2022-07-22T12:19:23;8.77;;;7.45;;
41986;SDS011;28361;50.740;7.084;2022-07-22T12:21:54;11.88;;;8.43;;
41986;SDS011;28361;50.740;7.084;2022-07-22T12:27:07;8.27;;;7.32;;
41986;SDS011;28361;50.740;7.084;2022-07-22T12:32:46;9.82;;;7.95;;
41986;SDS011;28361;50.740;7.084;2022-07-22T12:37:20;8.18;;;7.22;;
41986;SDS011;28361;50.740;7.084;2022-07-22T12:39:54;9.07;;;7.20;;
41986;SDS011;28361;50.740;7.084;2022-07-22T12:42:22;10.48;;;7.38;;
41986;SDS011;28361;50.740;7.084;2022-07-22T12:45:05;9.52;;;7.55;;
41986;SDS011;28361;50.740;7.084;2022-07-22T12:50:18;7.80;;;6.68;;
41986;SDS011;28361;50.740;7.084;2022-07-22T12:52:56;10.45;;;7.78;;
41986;SDS011;28361;50.740;7.084;2022-07-22T12:55:23;8.80;;;7.60;;
41986;SDS011;28361;50.740;7.084;2022-07-22T12:57:49;9.10;;;7.40;;
41986;SDS011;28361;50.740;7.084;2022-07-22T13:00:15;11.40;;;7.85;;
41986;SDS011;28361;50.740;7.084;2022-07-22T13:02:43;9.77;;;8.10;;
41986;SDS011;28361;50.740;7.084;2022-07-22T13:05:08;7.55;;;6.75;;
41986;SDS011;28361;50.740;7.084;2022-07-22T13:07:34;11.00;;;6.93;;
41986;SDS011;28361;50.740;7.084;2022-07-22T13:10:00;8.35;;;7.05;;
41986;SDS011;28361;50.740;7.084;2022-07-22T13:12:26;8.18;;;6.82;;
41986;SDS011;28361;50.740;7.084;2022-07-22T13:14:51;11.50;;;6.85;;
41986;SDS011;28361;50.740;7.084;2022-07-22T13:17:17;7.78;;;6.88;;
41986;SDS011;28361;50.740;7.084;2022-07-22T13:19:44;10.35;;;6.82;;
41986;SDS011;28361;50.740;7.084;2022-07-22T13:22:10;7.63;;;6.30;;
41986;SDS011;28361;50.740;7.084;2022-07-22T13:24:36;8.90;;;6.97;;
41986;SDS011;28361;50.740;7.084;2022-07-22T13:27:02;6.72;;;5.82;;
41986;SDS011;28361;50.740;7.084;2022-07-22T13:29:28;7.22;;;5.60;;
41986;SDS011;28361;50.740;7.084;2022-07-22T13:31:53;8.63;;;5.55;;
41986;SDS011;28361;50.740;7.084;2022-07-22T13:34:19;6.22;;;4.97;;
41986;SDS011;28361;50.740;7.084;2022-07-22T13:36:45;7.40;;;5.78;;
41986;SDS011;28361;50.740;7.084;2022-07-22T13:39:11;10.32;;;6.45;;
41986;SDS011;28361;50.740;7.084;2022-07-22T13:41:36;6.60;;;5.57;;
41986;SDS011;28361;50.740;7.084;2022-07-22T13:44:02;7.38;;;6.28;;
41986;SDS011;28361;50.740;7.084;2022-07-22T13:46:33;7.77;;;5.37;;
41986;SDS011;28361;50.740;7.084;2022-07-22T13:48:59;7.22;;;5.70;;
41986;SDS011;28361;50.740;7.084;2022-07-22T13:51:25;6.68;;;5.85;;
41986;SDS011;28361;50.740;7.084;2022-07-22T13:53:51;6.55;;;5.63;;
41986;SDS011;28361;50.740;7.084;2022-07-22T13:56:17;6.88;;;5.43;;
41986;SDS011;28361;50.740;7.084;2022-07-22T13:58:43;7.80;;;5.82;;
41986;SDS011;28361;50.740;7.084;2022-07-22T14:01:09;7.32;;;5.57;;
41986;SDS011;28361;50.740;7.084;2022-07-22T14:03:35;6.88;;;5.20;;
41986;SDS011;28361;50.740;7.084;2022-07-22T14:06:02;7.07;;;5.50;;
41986;SDS011;28361;50.740;7.084;2022-07-22T14:08:28;5.32;;;4.60;;
41986;SDS011;28361;50.740;7.084;2022-07-22T14:10:54;6.38;;;4.50;;
41986;SDS011;28361;50.740;7.084;2022-07-22T14:13:20;6.10;;;4.80;;
41986;SDS011;28361;50.740;7.084;2022-07-22T14:15:46;5.82;;;4.93;;
41986;SDS011;28361;50.740;7.084;2022-07-22T14:18:11;6.32;;;4.78;;
41986;SDS011;28361;50.740;7.084;2022-07-22T14:20:37;7.20;;;4.65;;
41986;SDS011;28361;50.740;7.084;2022-07-22T14:23:05;7.05;;;4.97;;
41986;SDS011;28361;50.740;7.084;2022-07-22T14:25:32;5.25;;;4.22;;
41986;SDS011;28361;50.740;7.084;2022-07-22T14:27:58;5.90;;;4.45;;
41986;SDS011;28361;50.740;7.084;2022-07-22T14:30:24;6.88;;;4.90;;
41986;SDS011;28361;50.740;7.084;2022-07-22T14:32:50;5.80;;;4.53;;
41986;SDS011;28361;50.740;7.084;2022-07-22T14:35:15;5.32;;;4.07;;
41986;SDS011;28361;50.740;7.084;2022-07-22T14:37:41;8.48;;;4.55;;
41986;SDS011;28361;50.740;7.084;2022-07-22T14:40:07;5.65;;;3.90;;
41986;SDS011;28361;50.740;7.084;2022-07-22T14:42:33;6.00;;;4.07;;
41986;SDS011;28361;50.740;7.084;2022-07-22T14:44:59;6.00;;;4.80;;
41986;SDS011;28361;50.740;7.084;2022-07-22T14:47:25;5.90;;;4.72;;
41986;SDS011;28361;50.740;7.084;2022-07-22T14:49:51;6.60;;;4.63;;
41986;SDS011;28361;50.740;7.084;2022-07-22T14:52:17;5.28;;;4.45;;
41986;SDS011;28361;50.740;7.084;2022-07-22T14:54:43;6.22;;;4.55;;
41986;SDS011;28361;50.740;7.084;2022-07-22T14:57:09;6.47;;;4.10;;
41986;SDS011;28361;50.740;7.084;2022-07-22T14:59:34;5.95;;;4.47;;
41986;SDS011;28361;50.740;7.084;2022-07-22T15:02:00;5.88;;;4.72;;
41986;SDS011;28361;50.740;7.084;2022-07-22T15:04:26;6.63;;;4.80;;
41986;SDS011;28361;50.740;7.084;2022-07-22T15:06:51;6.82;;;4.70;;
41986;SDS011;28361;50.740;7.084;2022-07-22T15:09:17;4.82;;;4.20;;
41986;SDS011;28361;50.740;7.084;2022-07-22T15:11:43;6.82;;;4.55;;